リーブルヴィル の空港の天気 - METARとTAF

リーブルヴィル国際空港 ( FOOL / LBV ) - ガボン リーブルヴィル
飛行場実況気象(Metar)
観測時間06/24 10:30 WAT (06/24 09:30 UTC)
風向・風速南 5m/s
視程10km以上
天気現象
全天の4割程度の雲 雲底高度 400m
気温26℃
湿度84%
気圧1014hPa
METARFOOL 240930Z 17010KT 9999 SCT013 26/23 Q1014 NOSIG
過去の天気等 Google飛行場航空写真 Wunderground天気予報

過去48時間のMETAR

飛行場予報(TAF)
発表時間: 6/24 06:23 WAT (6/24 05:23 UTC)
予報対象時間: 24日7時 WAT ~ 25日13時 WAT
風向・風速南南東 4m/s
視程10km以上
全天の4割程度の雲 雲底高度 370m
全天の8割程度の雲 雲底高度 1010m
TAF FOOL 240523Z 2406/2512 16007KT 9999 SCT012 BKN033